Time;durP1;ratioP1;P1;durP2;ratioP2;P2;SDS_P1;SDS_P2;PMS_P1;PMS_P2;Temp;Humidity;BMP_temperature;BMP_pressure;BME280_temperature;BME280_humidity;BME280_pressure;Samples;Min_cycle;Max_cycle;Signal;HPM_P1;HPM_P2
2022/10/11 00:02:20;;;;;;;7.28;5.00;;;18.80;59.10;;;;;;5092025;28;20039;-81
2022/10/11 00:04:45;;;;;;;9.63;6.15;;;18.40;59.80;;;;;;5088736;28;20028;-81
2022/10/11 00:07:11;;;;;;;10.75;5.90;;;18.40;60.20;;;;;;5076382;28;20034;-81
2022/10/11 00:09:37;;;;;;;8.00;5.63;;;18.70;60.20;;;;;;5074183;28;20471;-78
2022/10/11 00:12:03;;;;;;;9.10;5.53;;;19.00;59.50;;;;;;5095805;28;20568;-79
2022/10/11 00:14:29;;;;;;;8.32;5.82;;;19.30;59.20;;;;;;5096218;28;20023;-81
2022/10/11 00:16:55;;;;;;;12.05;6.03;;;19.50;58.40;;;;;;5096003;28;20032;-81
2022/10/11 00:19:21;;;;;;;9.25;5.63;;;19.50;58.30;;;;;;5096048;28;20031;-81
2022/10/11 00:21:47;;;;;;;10.70;5.97;;;19.70;57.90;;;;;;5095792;28;20428;-81
2022/10/11 00:24:14;;;;;;;10.27;5.72;;;19.60;58.10;;;;;;5095234;28;20390;-82
2022/10/11 00:26:40;;;;;;;10.25;5.22;;;19.40;58.00;;;;;;5085650;28;20035;-81
2022/10/11 00:29:06;;;;;;;8.10;5.20;;;19.10;59.30;;;;;;5096050;28;20382;-82
2022/10/11 00:31:32;;;;;;;8.85;5.30;;;19.30;59.10;;;;;;5084567;28;20072;-82
2022/10/11 00:33:58;;;;;;;12.88;4.72;;;19.30;59.30;;;;;;5092839;28;20024;-81
2022/10/11 00:36:24;;;;;;;6.97;4.95;;;19.00;58.80;;;;;;5077232;28;20062;-81
2022/10/11 00:38:50;;;;;;;7.47;5.10;;;18.60;60.00;;;;;;5095520;28;20027;-81
2022/10/11 00:41:16;;;;;;;9.32;5.30;;;18.30;60.30;;;;;;5092356;28;20035;-81
2022/10/11 00:43:43;;;;;;;9.82;5.90;;;18.50;60.10;;;;;;5094203;28;20031;-82
2022/10/11 00:46:28;;;;;;;7.80;5.13;;;18.90;59.40;;;;;;5095229;28;20028;-82
2022/10/11 00:49:12;;;;;;;9.13;5.82;;;19.10;58.90;;;;;;5111722;28;20107;-81
2022/10/11 00:51:56;;;;;;;8.55;5.38;;;19.20;58.60;;;;;;5091094;28;20078;-82
2022/10/11 00:54:26;;;;;;;8.90;5.00;;;19.20;58.40;;;;;;5079996;28;20500;-82
2022/10/11 00:57:03;;;;;;;8.00;4.93;;;18.80;58.50;;;;;;5077013;28;20044;-83
2022/10/11 00:59:33;;;;;;;8.40;5.07;;;18.50;58.30;;;;;;5093600;28;20517;-81
2022/10/11 01:02:23;;;;;;;10.20;5.85;;;18.50;58.70;;;;;;5079754;28;20025;-81
2022/10/11 01:04:50;;;;;;;7.65;5.30;;;18.90;58.90;;;;;;5088053;28;20028;-82
2022/10/11 01:07:20;;;;;;;9.23;5.00;;;19.10;58.50;;;;;;5075321;28;20105;-82
2022/10/11 01:09:45;;;;;;;8.90;5.65;;;19.10;58.30;;;;;;5074617;28;20033;-81
2022/10/11 01:12:18;;;;;;;9.38;5.07;;;19.20;57.70;;;;;;5072736;28;20110;-81
2022/10/11 01:15:16;;;;;;;8.18;5.30;;;19.10;57.80;;;;;;5087920;28;20020;-81
2022/10/11 01:18:32;;;;;;;10.27;5.88;;;19.30;57.60;;;;;;5089000;28;20039;-81
2022/10/11 01:21:14;;;;;;;10.57;6.10;;;19.20;57.60;;;;;;5054747;28;20087;-82
2022/10/11 01:23:59;;;;;;;10.77;5.88;;;19.20;57.60;;;;;;5075847;28;20521;-81
2022/10/11 01:26:52;;;;;;;10.00;5.68;;;19.20;57.50;;;;;;5085720;28;20040;-80
2022/10/11 01:29:43;;;;;;;12.77;5.90;;;19.10;57.50;;;;;;5074067;28;20465;-82
2022/10/11 01:32:28;;;;;;;8.27;5.75;;;18.90;58.20;;;;;;5072449;28;20458;-81
2022/10/11 01:35:02;;;;;;;8.52;6.45;;;19.10;57.70;;;;;;5072448;28;20047;-81
2022/10/11 01:37:42;;;;;;;7.00;5.00;;;19.10;57.60;;;;;;5072401;28;20036;-82
2022/10/11 01:40:46;;;;;;;9.18;5.60;;;18.90;57.70;;;;;;5071779;28;20020;-80
2022/10/11 01:43:13;;;;;;;9.98;6.10;;;18.50;59.30;;;;;;5005366;28;20100;-82
2022/10/11 01:45:42;;;;;;;9.10;5.65;;;18.50;58.60;;;;;;4995889;28;20033;-81
2022/10/11 01:48:11;;;;;;;9.52;6.10;;;18.40;59.20;;;;;;4994956;28;20117;-81
2022/10/11 01:50:42;;;;;;;9.32;5.35;;;18.40;59.30;;;;;;4995124;28;20121;-81
2022/10/11 01:53:38;;;;;;;12.50;6.38;;;18.60;58.80;;;;;;5012391;28;20060;-81
2022/10/11 01:56:18;;;;;;;14.95;6.20;;;18.80;58.40;;;;;;5011934;28;20034;-80
2022/10/11 01:59:14;;;;;;;9.77;5.13;;;18.90;58.00;;;;;;5012464;28;20057;-80
2022/10/11 02:02:01;;;;;;;9.45;5.57;;;18.90;58.40;;;;;;5012350;28;20129;-81
2022/10/11 02:04:34;;;;;;;9.45;5.68;;;18.80;59.10;;;;;;4996252;28;20096;-81
2022/10/11 02:07:07;;;;;;;9.73;6.20;;;18.90;58.60;;;;;;4995523;28;20444;-80
2022/10/11 02:10:06;;;;;;;9.75;5.88;;;18.90;58.60;;;;;;5011226;28;20109;-81
2022/10/11 02:12:41;;;;;;;9.43;5.80;;;19.00;58.50;;;;;;4953625;28;20040;-81
2022/10/11 02:15:09;;;;;;;9.95;5.60;;;19.10;57.90;;;;;;4954035;29;20020;-82
2022/10/11 02:17:48;;;;;;;8.10;5.78;;;18.80;59.20;;;;;;4994192;28;20086;-82
2022/10/11 02:20:20;;;;;;;11.43;6.07;;;18.80;58.80;;;;;;4995282;28;20021;-81
2022/10/11 02:22:50;;;;;;;10.25;5.43;;;19.00;58.40;;;;;;5011828;28;20084;-82
2022/10/11 02:25:35;;;;;;;8.32;5.25;;;19.00;58.10;;;;;;5012197;28;20535;-82
2022/10/11 02:28:06;;;;;;;8.95;5.65;;;19.10;57.60;;;;;;5011912;28;20432;-81
2022/10/11 02:30:32;;;;;;;;;;;19.00;58.40;;;;;;5012224;28;20492;-81
2022/10/11 02:33:05;;;;;;;8.18;5.43;;;19.00;58.30;;;;;;4995107;28;20273;-81
2022/10/11 02:35:38;;;;;;;8.60;6.00;;;19.00;58.40;;;;;;5011873;28;20046;-81
2022/10/11 02:38:23;;;;;;;9.02;5.20;;;18.90;58.30;;;;;;5011694;28;20410;-81
2022/10/11 02:41:02;;;;;;;7.40;4.93;;;18.80;59.10;;;;;;5023333;28;20049;-80
2022/10/11 02:43:30;;;;;;;8.10;5.10;;;18.70;59.00;;;;;;5027575;28;20034;-81
2022/10/11 02:45:59;;;;;;;9.48;5.20;;;18.60;59.40;;;;;;5011512;28;20037;-81
2022/10/11 02:48:28;;;;;;;8.48;5.40;;;18.60;59.20;;;;;;5052147;28;20072;-82
2022/10/11 02:50:55;;;;;;;10.35;5.57;;;18.50;59.00;;;;;;5093243;28;20104;-82
2022/10/11 02:53:21;;;;;;;10.35;5.65;;;18.60;59.20;;;;;;5074898;28;20027;-82
2022/10/11 02:55:48;;;;;;;8.52;5.32;;;18.80;58.70;;;;;;5083792;28;20082;-80
2022/10/11 02:58:14;;;;;;;9.00;6.03;;;19.00;58.50;;;;;;5074339;28;20036;-82
2022/10/11 03:00:40;;;;;;;15.77;5.72;;;19.10;58.50;;;;;;5085683;28;20047;-81
2022/10/11 03:03:05;;;;;;;9.38;5.75;;;19.10;58.40;;;;;;5066075;28;20035;-81
2022/10/11 03:05:36;;;;;;;9.25;5.90;;;19.20;58.10;;;;;;5074064;28;20028;-82
2022/10/11 03:08:02;;;;;;;11.07;5.70;;;19.20;57.90;;;;;;5077447;28;20441;-82
2022/10/11 03:10:27;;;;;;;10.20;5.47;;;19.00;58.10;;;;;;5104290;28;20485;-81
2022/10/11 03:12:53;;;;;;;10.15;6.03;;;18.90;58.20;;;;;;5079051;28;20553;-81
2022/10/11 03:15:18;;;;;;;9.00;5.70;;;18.90;58.50;;;;;;5075550;28;20027;-81
2022/10/11 03:17:44;;;;;;;9.40;5.65;;;19.10;58.30;;;;;;5075714;28;20036;-81
2022/10/11 03:20:10;;;;;;;9.23;5.72;;;19.10;58.20;;;;;;5080661;28;20026;-82
2022/10/11 03:22:36;;;;;;;9.40;5.70;;;19.10;57.80;;;;;;5077185;28;20027;-81
2022/10/11 03:25:02;;;;;;;9.10;5.88;;;19.30;57.70;;;;;;5093878;28;20025;-82
2022/10/11 03:27:27;;;;;;;8.18;5.50;;;19.30;57.40;;;;;;5078214;28;20533;-82
2022/10/11 03:29:53;;;;;;;8.02;4.93;;;19.30;58.10;;;;;;5083461;28;20036;-81
2022/10/11 03:32:19;;;;;;;7.55;5.22;;;19.00;58.60;;;;;;5078928;28;20049;-81
2022/10/11 03:34:44;;;;;;;8.65;5.40;;;18.90;58.60;;;;;;5081652;28;20973;-82
2022/10/11 03:37:10;;;;;;;7.93;4.90;;;18.60;59.00;;;;;;5102558;28;20395;-82
2022/10/11 03:39:37;;;;;;;8.82;5.00;;;18.70;58.90;;;;;;5077876;28;20532;-81
2022/10/11 03:42:02;;;;;;;8.98;5.43;;;18.70;58.90;;;;;;5097701;28;20063;-81
2022/10/11 03:44:28;;;;;;;8.52;5.57;;;18.90;58.70;;;;;;5095844;28;20510;-81
2022/10/11 03:46:54;;;;;;;9.40;5.07;;;19.10;58.20;;;;;;5086656;28;20032;-82
2022/10/11 03:49:19;;;;;;;8.18;5.43;;;19.00;58.20;;;;;;5091797;28;20035;-80
2022/10/11 03:51:45;;;;;;;8.55;5.60;;;18.70;58.90;;;;;;5082816;28;20111;-80
2022/10/11 03:54:10;;;;;;;8.85;6.45;;;18.90;58.90;;;;;;5095202;28;20066;-81
2022/10/11 03:56:36;;;;;;;8.73;5.35;;;19.00;58.90;;;;;;5082465;28;20033;-82
2022/10/11 03:59:02;;;;;;;8.68;5.63;;;19.10;58.70;;;;;;5092568;28;20032;-81
2022/10/11 04:01:28;;;;;;;8.63;5.57;;;19.20;58.80;;;;;;5077700;28;20048;-81
2022/10/11 04:03:56;;;;;;;8.32;5.80;;;19.30;58.70;;;;;;5096228;28;20035;-80
2022/10/11 04:06:22;;;;;;;10.23;5.95;;;19.50;58.00;;;;;;5077606;28;20067;-81
2022/10/11 04:08:47;;;;;;;9.23;5.57;;;19.60;57.70;;;;;;5089503;28;20029;-81
2022/10/11 04:11:13;;;;;;;8.43;5.60;;;19.70;57.40;;;;;;5077370;28;20440;-81
2022/10/11 04:13:38;;;;;;;8.45;5.68;;;19.60;57.80;;;;;;5094056;28;20043;-81
2022/10/11 04:16:05;;;;;;;8.40;5.55;;;19.40;58.30;;;;;;5095378;28;20020;-81
2022/10/11 04:18:30;;;;;;;9.85;5.32;;;19.30;58.70;;;;;;5093973;28;20089;-81
2022/10/11 04:20:56;;;;;;;9.13;5.57;;;19.30;58.50;;;;;;5078486;28;20029;-78
2022/10/11 04:23:21;;;;;;;9.88;5.53;;;19.40;58.60;;;;;;5093384;28;20040;-81
2022/10/11 04:25:47;;;;;;;10.23;5.55;;;19.40;58.40;;;;;;5111216;28;20031;-81
2022/10/11 04:28:13;;;;;;;8.07;5.25;;;19.30;58.40;;;;;;5076543;28;20028;-80
2022/10/11 04:30:42;;;;;;;12.27;5.75;;;19.30;58.40;;;;;;5058634;28;20158;-81
2022/10/11 04:33:10;;;;;;;8.88;6.13;;;19.30;58.20;;;;;;5067017;28;20084;-81
2022/10/11 04:35:36;;;;;;;10.88;6.00;;;19.20;58.70;;;;;;5090725;28;20032;-82
2022/10/11 04:38:01;;;;;;;10.23;5.97;;;19.30;58.40;;;;;;5056829;28;20411;-81
2022/10/11 04:40:27;;;;;;;11.90;6.30;;;19.40;58.30;;;;;;5049854;28;20082;-81
2022/10/11 04:42:53;;;;;;;9.93;6.03;;;19.50;58.20;;;;;;5058405;28;20442;-80
2022/10/11 04:45:20;;;;;;;10.20;6.10;;;19.40;58.20;;;;;;5057485;28;20048;-80
2022/10/11 04:47:46;;;;;;;8.98;5.80;;;19.40;58.20;;;;;;5075142;28;20029;-81
2022/10/11 04:50:12;;;;;;;7.15;5.35;;;19.40;58.00;;;;;;5075849;28;20020;-80
2022/10/11 04:52:38;;;;;;;8.10;5.57;;;19.40;57.90;;;;;;5075850;28;20024;-80
2022/10/11 04:55:04;;;;;;;8.20;5.95;;;19.30;58.20;;;;;;5064054;28;20021;-80
2022/10/11 04:57:30;;;;;;;11.57;6.07;;;19.30;58.20;;;;;;5072336;28;20032;-80
2022/10/11 04:59:55;;;;;;;8.45;5.25;;;19.10;59.20;;;;;;5072149;28;20426;-81
2022/10/11 05:02:21;;;;;;;8.48;5.88;;;19.10;58.10;;;;;;5073067;28;20040;-79
2022/10/11 05:04:46;;;;;;;7.65;5.25;;;19.00;58.30;;;;;;5073243;28;20028;-79
2022/10/11 05:07:12;;;;;;;10.40;5.95;;;18.90;58.60;;;;;;5073674;28;20019;-79
2022/10/11 05:09:38;;;;;;;7.95;5.40;;;18.70;59.00;;;;;;5073578;28;20016;-80
2022/10/11 05:12:05;;;;;;;10.50;5.70;;;18.80;59.10;;;;;;5071860;28;20028;-80
2022/10/11 05:14:30;;;;;;;9.88;5.55;;;18.90;58.60;;;;;;5074213;28;20025;-80
2022/10/11 05:16:56;;;;;;;10.80;5.97;;;19.10;58.60;;;;;;5089695;28;20037;-79
2022/10/11 05:19:22;;;;;;;9.73;5.90;;;19.20;58.30;;;;;;5089591;28;20062;-80
2022/10/11 05:21:48;;;;;;;9.90;5.80;;;19.20;58.20;;;;;;5056274;28;20088;-79
2022/10/11 05:24:13;;;;;;;8.77;5.70;;;18.80;58.80;;;;;;5074226;28;20019;-80
2022/10/11 05:26:39;;;;;;;9.02;5.80;;;18.70;59.30;;;;;;5055904;28;20031;-79
2022/10/11 05:29:05;;;;;;;12.93;7.13;;;19.00;58.70;;;;;;5072291;28;20056;-78
2022/10/11 05:31:31;;;;;;;17.45;8.73;;;18.80;58.70;;;;;;5062366;28;20131;-79
2022/10/11 05:33:57;;;;;;;11.18;7.00;;;18.50;59.60;;;;;;5064920;28;20049;-78
2022/10/11 05:36:23;;;;;;;12.32;6.93;;;18.60;59.70;;;;;;5071562;28;20131;-78
2022/10/11 05:38:48;;;;;;;14.82;7.57;;;18.90;58.90;;;;;;5070539;28;20074;-79
2022/10/11 05:41:14;;;;;;;12.00;7.90;;;19.10;58.50;;;;;;5052592;28;20028;-81
2022/10/11 05:43:40;;;;;;;9.57;6.63;;;19.40;58.00;;;;;;5051053;28;20022;-79
2022/10/11 05:46:06;;;;;;;8.00;5.18;;;19.50;57.90;;;;;;5016098;28;20021;-81
2022/10/11 05:48:32;;;;;;;7.07;4.82;;;19.70;57.20;;;;;;5032551;28;20428;-79
2022/10/11 05:50:59;;;;;;;7.40;4.88;;;19.90;56.40;;;;;;5055629;28;20024;-80
2022/10/11 05:53:25;;;;;;;9.75;4.85;;;20.10;55.80;;;;;;5069553;28;20098;-80
2022/10/11 05:55:51;;;;;;;8.95;5.30;;;20.20;55.60;;;;;;5053491;28;20353;-80
2022/10/11 05:58:17;;;;;;;6.95;4.43;;;20.30;55.10;;;;;;5051902;28;20658;-80
2022/10/11 06:00:43;;;;;;;8.18;5.15;;;20.30;55.10;;;;;;5054264;28;20025;-79
2022/10/11 06:03:11;;;;;;;7.90;5.22;;;20.50;54.70;;;;;;5058989;28;20021;-80
2022/10/11 06:05:37;;;;;;;11.70;5.03;;;20.60;54.70;;;;;;5063630;28;20031;-80
2022/10/11 06:08:05;;;;;;;7.57;4.38;;;20.70;54.70;;;;;;5064381;28;20020;-81
2022/10/11 06:10:31;;;;;;;9.50;4.65;;;20.70;54.70;;;;;;5049426;28;20020;-80
2022/10/11 06:12:57;;;;;;;7.35;5.13;;;20.80;54.30;;;;;;5064661;28;20028;-80
2022/10/11 06:15:23;;;;;;;11.88;5.47;;;20.80;54.40;;;;;;5060565;28;20022;-80
2022/10/11 06:17:49;;;;;;;9.50;5.57;;;20.80;55.10;;;;;;5058845;28;20032;-80
2022/10/11 06:20:14;;;;;;;7.90;5.10;;;20.80;55.70;;;;;;5062364;28;20021;-80
2022/10/11 06:22:40;;;;;;;9.25;5.20;;;20.90;55.90;;;;;;5068414;28;20021;-82
2022/10/11 06:25:06;;;;;;;8.20;5.03;;;20.90;55.70;;;;;;5051926;28;20032;-81
2022/10/11 06:27:32;;;;;;;8.05;5.45;;;20.90;55.60;;;;;;5058654;28;20060;-81
2022/10/11 06:29:58;;;;;;;9.68;5.47;;;20.90;55.60;;;;;;5063325;28;20048;-80
2022/10/11 06:32:24;;;;;;;7.20;5.15;;;21.00;55.30;;;;;;5050465;28;20116;-80
2022/10/11 06:34:49;;;;;;;9.80;5.28;;;20.90;55.00;;;;;;5050281;28;20023;-81
2022/10/11 06:37:15;;;;;;;11.40;5.38;;;20.80;56.00;;;;;;5044156;28;20046;-80
2022/10/11 06:39:41;;;;;;;8.70;5.00;;;20.90;55.90;;;;;;5048076;28;20118;-80
2022/10/11 06:42:06;;;;;;;8.13;4.85;;;21.10;56.20;;;;;;5046691;28;20396;-81
2022/10/11 06:44:32;;;;;;;10.30;4.82;;;21.20;55.80;;;;;;5043364;28;20029;-80
2022/10/11 06:46:57;;;;;;;8.98;5.28;;;20.60;55.60;;;;;;5044460;28;20480;-80
2022/10/11 06:49:23;;;;;;;7.97;5.00;;;20.10;55.90;;;;;;5041811;28;20396;-81
2022/10/11 06:51:49;;;;;;;8.52;5.22;;;20.00;57.30;;;;;;5052093;28;20025;-79
2022/10/11 06:54:15;;;;;;;8.95;4.55;;;20.40;57.10;;;;;;5047301;28;20082;-81
2022/10/11 06:56:41;;;;;;;8.05;4.88;;;20.60;55.90;;;;;;5046300;28;20096;-81
2022/10/11 06:59:07;;;;;;;7.88;4.90;;;20.40;57.10;;;;;;5045826;28;20035;-80
2022/10/11 07:01:33;;;;;;;6.30;4.30;;;20.50;54.50;;;;;;5048363;28;20021;-79
2022/10/11 07:04:00;;;;;;;6.43;4.57;;;20.70;54.90;;;;;;5045723;28;20055;-80
2022/10/11 07:06:28;;;;;;;7.60;4.55;;;21.00;54.90;;;;;;5052670;28;20021;-82
2022/10/11 07:08:54;;;;;;;6.90;4.53;;;21.20;54.20;;;;;;5034915;28;20472;-81
2022/10/11 07:11:22;;;;;;;9.00;5.30;;;21.20;54.50;;;;;;5034775;28;20029;-80
2022/10/11 07:13:50;;;;;;;7.35;4.70;;;21.40;54.20;;;;;;5067394;28;20021;-81
2022/10/11 07:16:16;;;;;;;7.47;4.65;;;21.50;53.30;;;;;;5052141;28;20017;-79
2022/10/11 07:18:42;;;;;;;7.70;4.68;;;21.30;53.70;;;;;;5050497;28;20029;-80
2022/10/11 07:21:12;;;;;;;7.15;4.20;;;21.70;54.60;;;;;;5050370;28;20059;-81
2022/10/11 07:23:38;;;;;;;10.07;4.50;;;22.00;53.40;;;;;;5051708;28;20044;-79
2022/10/11 07:26:05;;;;;;;13.32;5.38;;;22.10;52.30;;;;;;5034011;28;20475;-80
2022/10/11 07:28:31;;;;;;;11.20;4.50;;;22.30;53.70;;;;;;5030026;28;20026;-80
2022/10/11 07:30:58;;;;;;;9.50;4.20;;;22.60;52.30;;;;;;5049928;28;20040;-82
2022/10/11 07:33:24;;;;;;;7.35;4.15;;;22.70;51.10;;;;;;5070292;28;20028;-78
2022/10/11 07:35:50;;;;;;;8.00;4.20;;;22.90;51.10;;;;;;5070023;28;20033;-79
2022/10/11 07:38:16;;;;;;;9.73;4.43;;;23.00;51.70;;;;;;5069670;28;20036;-80
2022/10/11 07:40:44;;;;;;;9.20;4.30;;;23.10;51.90;;;;;;5072434;28;20471;-82
2022/10/11 07:43:11;;;;;;;9.50;4.57;;;23.10;51.70;;;;;;5072525;28;20090;-81
2022/10/11 07:45:43;;;;;;;7.68;5.10;;;23.10;52.20;;;;;;5069991;28;20483;-82
2022/10/11 07:48:11;;;;;;;7.28;4.30;;;23.20;51.80;;;;;;5087940;28;20028;-80
2022/10/11 07:50:36;;;;;;;8.02;4.82;;;23.40;51.70;;;;;;5054874;28;20375;-80
2022/10/11 07:53:03;;;;;;;8.40;4.95;;;23.00;52.60;;;;;;5076505;28;20028;-80
2022/10/11 07:55:32;;;;;;;8.45;4.80;;;22.90;52.50;;;;;;5076155;28;20031;-80
2022/10/11 07:57:58;;;;;;;10.60;5.17;;;22.90;53.30;;;;;;5074847;28;20032;-81
2022/10/11 08:00:24;;;;;;;10.55;5.45;;;22.70;53.40;;;;;;5073492;28;20043;-79
2022/10/11 08:02:49;;;;;;;8.63;5.47;;;22.70;52.60;;;;;;5067626;28;20128;-80
2022/10/11 08:05:15;;;;;;;8.05;5.15;;;22.80;51.80;;;;;;5037729;28;20025;-80
2022/10/11 08:07:41;;;;;;;7.28;4.72;;;23.10;52.10;;;;;;5055273;28;20025;-80
2022/10/11 08:10:07;;;;;;;6.57;4.20;;;23.10;51.20;;;;;;5056414;28;20098;-80
2022/10/11 08:12:33;;;;;;;7.82;4.20;;;22.80;51.30;;;;;;5073808;28;20467;-79
2022/10/11 08:14:59;;;;;;;8.32;4.30;;;22.80;51.60;;;;;;5075361;28;20048;-79
2022/10/11 08:17:25;;;;;;;8.23;4.72;;;22.70;52.80;;;;;;5075171;28;20050;-80
2022/10/11 08:19:50;;;;;;;11.00;4.30;;;22.70;53.20;;;;;;5073864;28;20379;-78
2022/10/11 08:22:16;;;;;;;8.40;4.95;;;22.80;53.10;;;;;;5069487;28;20024;-82
2022/10/11 08:24:42;;;;;;;7.10;4.45;;;23.20;53.20;;;;;;5068680;28;20067;-80
2022/10/11 08:27:08;;;;;;;8.13;4.70;;;23.50;53.20;;;;;;5074650;28;20107;-79
2022/10/11 08:29:33;;;;;;;7.82;4.45;;;23.70;52.20;;;;;;5073639;28;20439;-82
2022/10/11 08:31:59;;;;;;;8.38;4.40;;;23.30;51.90;;;;;;5054909;28;20055;-81
2022/10/11 08:34:25;;;;;;;7.55;4.45;;;22.80;52.30;;;;;;5072635;28;20032;-80
2022/10/11 08:36:51;;;;;;;8.45;4.25;;;22.70;53.20;;;;;;5067418;28;20468;-82
2022/10/11 08:39:16;;;;;;;6.75;4.10;;;23.00;52.50;;;;;;5054988;28;20025;-81
2022/10/11 08:41:54;;;;;;;7.32;4.18;;;23.20;51.70;;;;;;5073567;28;20028;-82
2022/10/11 08:44:41;;;;;;;12.05;4.75;;;23.50;51.80;;;;;;5073832;28;20041;-82
2022/10/11 08:47:22;;;;;;;38.10;12.40;;;23.70;51.60;;;;;;5073905;28;20021;-83
2022/10/11 08:49:48;;;;;;;;;;;23.60;51.00;;;;;;5075242;28;20091;-82
2022/10/11 08:52:21;;;;;;;8.05;4.15;;;23.30;52.30;;;;;;5075147;28;19927;-81
2022/10/11 08:54:53;;;;;;;6.20;4.20;;;23.30;52.40;;;;;;5073641;28;20526;-81
2022/10/11 08:57:22;;;;;;;8.18;4.10;;;23.50;52.30;;;;;;5075013;28;20044;-83
2022/10/11 08:59:53;;;;;;;8.95;4.28;;;23.70;51.30;;;;;;5073609;28;20063;-83
2022/10/11 09:02:37;;;;;;;6.80;4.25;;;23.80;51.30;;;;;;5073401;28;20365;-82
2022/10/11 09:05:03;;;;;;;7.32;4.22;;;24.00;50.80;;;;;;5072820;28;20028;-81
2022/10/11 09:07:51;;;;;;;6.78;4.20;;;24.20;51.30;;;;;;5056509;28;20170;-81
2022/10/11 09:10:28;;;;;;;7.97;4.43;;;24.20;50.40;;;;;;5074742;28;20025;-82
2022/10/11 09:13:19;;;;;;;6.57;4.25;;;24.20;51.20;;;;;;5074448;28;20427;-81
2022/10/11 09:15:55;;;;;;;8.10;4.25;;;24.10;51.20;;;;;;5074444;28;20048;-81
2022/10/11 09:18:49;;;;;;;9.20;4.15;;;24.20;50.30;;;;;;5073195;28;20487;-80
2022/10/11 09:21:35;;;;;;;6.45;4.32;;;24.40;50.40;;;;;;5074314;28;20356;-82
2022/10/11 09:24:27;;;;;;;7.90;4.70;;;24.50;50.40;;;;;;5074425;28;20047;-81
2022/10/11 09:27:03;;;;;;;9.45;4.15;;;24.60;50.70;;;;;;5069057;28;20490;-82
2022/10/11 09:29:32;;;;;;;5.78;4.28;;;24.60;50.50;;;;;;5074269;28;20432;-82
2022/10/11 09:31:58;;;;;;;9.63;4.82;;;24.90;50.00;;;;;;5074007;28;20078;-82
2022/10/11 09:34:31;;;;;;;7.78;4.90;;;24.90;50.00;;;;;;5075022;28;20028;-92
2022/10/11 09:37:12;;;;;;;8.50;5.45;;;24.00;50.30;;;;;;5056414;28;20094;-82
2022/10/11 09:39:49;;;;;;;7.82;4.85;;;23.70;52.50;;;;;;5073265;28;20020;-82
2022/10/11 09:42:15;;;;;;;14.90;5.38;;;24.00;52.20;;;;;;5074008;28;20028;-81
2022/10/11 09:44:46;;;;;;;8.95;5.30;;;24.40;51.30;;;;;;5074152;28;20463;-82
2022/10/11 09:47:19;;;;;;;11.52;5.43;;;24.70;51.20;;;;;;5074175;28;20098;-85
2022/10/11 09:50:06;;;;;;;8.15;5.50;;;25.00;50.40;;;;;;5055849;28;20021;-82
2022/10/11 09:52:32;;;;;;;7.25;4.90;;;25.00;51.20;;;;;;5073088;28;20032;-82
2022/10/11 09:55:01;;;;;;;8.90;5.53;;;25.10;50.80;;;;;;5073426;28;20025;-81
2022/10/11 09:57:30;;;;;;;10.65;5.40;;;25.10;50.90;;;;;;5073438;28;20043;-82
2022/10/11 10:00:22;;;;;;;7.88;5.20;;;25.10;51.40;;;;;;5072712;28;20028;-84
2022/10/11 10:02:51;;;;;;;8.52;5.88;;;25.20;50.30;;;;;;5073596;28;20070;-82
2022/10/11 10:05:28;;;;;;;12.70;5.45;;;25.10;51.50;;;;;;5072124;28;20024;-83
2022/10/11 10:08:08;;;;;;;10.85;5.70;;;25.20;51.20;;;;;;5069953;28;20119;-82
2022/10/11 10:10:44;;;;;;;9.93;5.10;;;25.30;51.00;;;;;;5073428;28;20032;-82
2022/10/11 10:13:24;;;;;;;7.25;5.50;;;25.30;50.60;;;;;;5055799;28;20033;-82
2022/10/11 10:15:53;;;;;;;9.20;5.20;;;25.50;50.80;;;;;;5072238;28;20150;-82
2022/10/11 10:18:21;;;;;;;10.30;5.40;;;25.80;50.40;;;;;;5089229;28;20029;-83
2022/10/11 10:20:55;;;;;;;8.60;5.30;;;25.90;50.30;;;;;;5073899;28;20020;-82
2022/10/11 10:23:31;;;;;;;7.10;4.78;;;25.90;50.70;;;;;;5055353;28;20029;-82
2022/10/11 10:26:17;;;;;;;9.05;5.60;;;25.90;51.30;;;;;;5073292;28;20384;-82
2022/10/11 10:28:58;;;;;;;9.15;5.53;;;26.00;50.40;;;;;;5055361;28;20083;-83
2022/10/11 10:31:47;;;;;;;10.70;5.55;;;26.00;50.70;;;;;;5073293;28;20501;-81
2022/10/11 10:34:25;;;;;;;9.30;5.95;;;26.10;50.80;;;;;;5062386;28;20024;-82
2022/10/11 10:36:59;;;;;;;13.45;5.93;;;26.00;50.90;;;;;;5071783;28;20168;-80
2022/10/11 10:39:32;;;;;;;11.15;6.50;;;25.90;51.00;;;;;;5055128;28;20028;-81
2022/10/11 10:42:02;;;;;;;11.68;6.43;;;25.80;51.30;;;;;;5072953;28;20542;-80
2022/10/11 10:44:27;;;;;;;12.10;7.03;;;25.90;51.00;;;;;;5072753;28;20388;-80
2022/10/11 10:47:19;;;;;;;12.60;6.80;;;25.60;52.10;;;;;;5071811;28;20281;-81
2022/10/11 10:49:59;;;;;;;12.10;6.90;;;25.80;52.40;;;;;;5072690;28;20028;-81
2022/10/11 10:52:37;;;;;;;11.93;7.97;;;26.10;51.50;;;;;;5072990;28;20391;-82
2022/10/11 10:55:22;;;;;;;12.70;7.53;;;26.20;51.90;;;;;;5071725;28;20079;-81
2022/10/11 10:58:18;;;;;;;11.23;6.15;;;26.20;51.40;;;;;;5073079;28;20035;-82
2022/10/11 11:01:00;;;;;;;11.82;6.53;;;26.40;51.40;;;;;;5071593;28;20024;-82
2022/10/11 11:03:34;;;;;;;10.80;7.50;;;26.60;51.90;;;;;;5055566;28;20567;-81
2022/10/11 11:06:05;;;;;;;9.00;6.32;;;26.60;51.80;;;;;;5055450;28;20038;-87
2022/10/11 11:09:12;;;;;;;8.85;7.03;;;26.50;51.00;;;;;;5072664;28;20024;-83
2022/10/11 11:11:58;;;;;;;10.50;7.15;;;26.40;51.90;;;;;;5055260;28;20059;-83
2022/10/11 11:14:51;;;;;;;8.82;6.35;;;26.30;51.50;;;;;;5073508;28;20017;-83
2022/10/11 11:17:22;;;;;;;11.10;7.43;;;26.30;52.30;;;;;;5055581;28;20146;-88
2022/10/11 11:20:09;;;;;;;11.07;7.10;;;26.00;52.00;;;;;;5074559;28;20379;-93
2022/10/11 11:23:01;;;;;;;9.52;6.85;;;25.30;53.00;;;;;;5072893;28;20547;-89
2022/10/11 11:26:13;;;;;;;12.43;6.97;;;25.00;53.80;;;;;;5071565;28;20069;-88
2022/10/11 11:28:51;;;;;;;13.70;7.28;;;25.30;53.80;;;;;;5015197;28;20038;-83
2022/10/11 11:31:43;;;;;;;9.80;7.00;;;25.80;54.00;;;;;;5015120;28;20084;-84
2022/10/11 11:34:22;;;;;;;9.00;6.97;;;26.10;53.40;;;;;;5015357;28;20049;-87
2022/10/11 11:36:56;;;;;;;11.93;7.20;;;26.40;52.80;;;;;;5014920;28;20038;-83
2022/10/11 11:39:39;;;;;;;15.48;8.32;;;26.60;52.90;;;;;;5014743;28;20026;-82
2022/10/11 11:42:14;;;;;;;11.35;8.00;;;26.70;52.10;;;;;;4997911;28;20026;-82
2022/10/11 11:44:48;;;;;;;10.30;8.10;;;27.00;52.00;;;;;;4998477;28;20404;-81
2022/10/11 11:47:36;;;;;;;11.65;7.68;;;27.00;52.30;;;;;;4998090;28;20420;-82
2022/10/11 11:50:13;;;;;;;9.85;7.32;;;27.10;52.50;;;;;;5014758;28;20053;-85
2022/10/11 11:52:44;;;;;;;12.00;8.27;;;27.00;52.30;;;;;;5014726;28;20096;-82
2022/10/11 11:55:10;;;;;;;11.20;8.00;;;26.90;52.70;;;;;;5014383;28;20038;-85
2022/10/11 11:57:52;;;;;;;12.35;9.00;;;27.00;52.90;;;;;;5014783;28;20048;-82
2022/10/11 12:00:25;;;;;;;12.45;9.55;;;27.10;52.70;;;;;;5014731;28;20022;-83
2022/10/11 12:03:02;;;;;;;13.98;9.85;;;27.30;52.70;;;;;;5014758;28;20037;-82
2022/10/11 12:05:31;;;;;;;15.30;10.00;;;27.40;52.50;;;;;;5050619;28;20036;-86
2022/10/11 12:08:01;;;;;;;13.57;9.57;;;27.30;52.40;;;;;;5076091;28;20531;-82
2022/10/11 12:10:48;;;;;;;16.67;9.85;;;27.10;52.60;;;;;;5075041;28;20399;-84
2022/10/11 12:13:16;;;;;;;14.85;10.27;;;27.20;52.30;;;;;;5075889;28;20387;-84
2022/10/11 12:16:08;;;;;;;15.05;11.75;;;27.20;53.10;;;;;;5058170;28;20080;-82
2022/10/11 12:18:46;;;;;;;20.70;12.02;;;27.20;52.80;;;;;;5075848;28;20039;-82
2022/10/11 12:21:29;;;;;;;14.70;10.65;;;27.10;53.10;;;;;;5075408;28;20068;-82
2022/10/11 12:24:10;;;;;;;17.75;11.90;;;27.30;53.50;;;;;;5074687;28;20031;-80
2022/10/11 12:26:40;;;;;;;;;;;27.10;52.40;;;;;;5057793;28;20021;-80
2022/10/11 12:29:23;;;;;;;15.98;10.38;;;27.00;53.10;;;;;;5071304;28;19951;-80
2022/10/11 12:31:58;;;;;;;13.48;11.07;;;27.00;53.00;;;;;;5075152;28;20045;-80
2022/10/11 12:34:43;;;;;;;14.05;10.90;;;26.80;52.70;;;;;;5075405;28;20029;-81
2022/10/11 12:37:23;;;;;;;14.82;11.80;;;26.80;52.80;;;;;;5075286;28;20387;-81
2022/10/11 12:39:58;;;;;;;14.35;11.65;;;26.90;52.90;;;;;;5074324;28;20028;-82
2022/10/11 12:42:35;;;;;;;15.98;12.98;;;26.90;53.10;;;;;;5075279;28;20028;-82
2022/10/11 12:45:10;;;;;;;15.90;12.38;;;26.90;52.70;;;;;;5057500;28;20028;-84
2022/10/11 12:48:14;;;;;;;15.10;13.02;;;26.90;52.80;;;;;;5075089;28;20087;-84
2022/10/11 12:50:42;;;;;;;16.23;12.68;;;26.80;53.10;;;;;;5057092;28;20039;-81
2022/10/11 12:53:28;;;;;;;16.83;11.95;;;26.90;53.70;;;;;;5075103;28;20021;-83
2022/10/11 12:56:22;;;;;;;17.20;11.93;;;26.90;53.50;;;;;;5074867;28;20056;-84
2022/10/11 12:58:48;;;;;;;16.27;11.57;;;26.90;53.90;;;;;;5073722;28;20083;-89
2022/10/11 13:01:21;;;;;;;16.02;11.45;;;27.00;54.20;;;;;;5056969;28;20448;-83
2022/10/11 13:04:06;;;;;;;17.13;12.13;;;26.90;53.70;;;;;;5057379;28;20025;-83
2022/10/11 13:06:44;;;;;;;13.30;11.40;;;26.80;53.30;;;;;;5074452;28;20082;-85
2022/10/11 13:09:09;;;;;;;14.93;11.13;;;26.90;54.10;;;;;;5056892;28;20020;-84